Terminal Aerodrome Forecast
Issued by NWS Austin/San Antonio, TX

Home | Current Version | Previous Version | Text Only | Print | Product List | Glossary On
Versions: 1 2 3 4 5 6 7 8 9 10 11 12 13 14 15 16
471
FTUS44 KEWX 271737
TAFDRT
TAF
KDRT 271737Z 2718/2818 12006KT P6SM BKN020
     FM271900 13010KT P6SM SCT035
     FM272200 12011KT P6SM VCTS SCT040CB SCT250
     FM280100 10009KT P6SM BKN250
     FM281100 11008KT P6SM OVC015=

USA.gov is the U.S. government's official web portal to all federal, state and local government web resources and services.